sensor_id;sensor_type;location;lat;lon;timestamp;P1;durP1;ratioP1;P2;durP2;ratioP2
53939;SDS011;39850;43.324;21.916;2023-02-01T00:02:45;13.0;;;12.0;;
53939;SDS011;39850;43.324;21.916;2023-02-01T00:07:22;13.0;;;12.0;;
53939;SDS011;39850;43.324;21.916;2023-02-01T00:11:58;13.0;;;12.0;;
53939;SDS011;39850;43.324;21.916;2023-02-01T01:07:29;22.0;;;18.0;;
53939;SDS011;39850;43.324;21.916;2023-02-01T01:12:05;22.0;;;18.0;;
53939;SDS011;39850;43.324;21.916;2023-02-01T01:16:42;24.0;;;20.0;;
53939;SDS011;39850;43.324;21.916;2023-02-01T01:21:20;24.0;;;20.0;;
53939;SDS011;39850;43.324;21.916;2023-02-01T01:25:56;24.0;;;20.0;;
53939;SDS011;39850;43.324;21.916;2023-02-01T01:30:34;24.0;;;20.0;;
53939;SDS011;39850;43.324;21.916;2023-02-01T01:35:11;27.0;;;22.0;;
53939;SDS011;39850;43.324;21.916;2023-02-01T01:39:48;27.0;;;22.0;;
53939;SDS011;39850;43.324;21.916;2023-02-01T02:34:13;43.0;;;35.0;;
53939;SDS011;39850;43.324;21.916;2023-02-01T02:39:36;42.0;;;34.0;;
53939;SDS011;39850;43.324;21.916;2023-02-01T02:44:53;42.0;;;34.0;;
53939;SDS011;39850;43.324;21.916;2023-02-01T02:49:59;42.0;;;34.0;;
53939;SDS011;39850;43.324;21.916;2023-02-01T02:54:53;42.0;;;34.0;;
53939;SDS011;39850;43.324;21.916;2023-02-01T02:59:43;40.0;;;33.0;;
53939;SDS011;39850;43.324;21.916;2023-02-01T03:04:22;40.0;;;33.0;;
53939;SDS011;39850;43.324;21.916;2023-02-01T03:48:06;67.0;;;51.0;;
53939;SDS011;39850;43.324;21.916;2023-02-01T03:53:05;67.0;;;51.0;;
53939;SDS011;39850;43.324;21.916;2023-02-01T03:58:08;56.0;;;44.0;;
53939;SDS011;39850;43.324;21.916;2023-02-01T04:02:50;56.0;;;44.0;;
53939;SDS011;39850;43.324;21.916;2023-02-01T04:07:27;56.0;;;44.0;;
53939;SDS011;39850;43.324;21.916;2023-02-01T04:12:05;56.0;;;44.0;;
53939;SDS011;39850;43.324;21.916;2023-02-01T04:16:42;46.0;;;38.0;;
53939;SDS011;39850;43.324;21.916;2023-02-01T04:21:19;46.0;;;38.0;;
53939;SDS011;39850;43.324;21.916;2023-02-01T04:58:16;26.0;;;22.0;;
53939;SDS011;39850;43.324;21.916;2023-02-01T05:02:53;26.0;;;22.0;;
53939;SDS011;39850;43.324;21.916;2023-02-01T05:07:29;26.0;;;22.0;;
53939;SDS011;39850;43.324;21.916;2023-02-01T05:12:09;26.0;;;22.0;;
53939;SDS011;39850;43.324;21.916;2023-02-01T05:16:46;26.0;;;22.0;;
53939;SDS011;39850;43.324;21.916;2023-02-01T05:21:24;26.0;;;22.0;;
53939;SDS011;39850;43.324;21.916;2023-02-01T05:26:02;27.0;;;22.0;;
53939;SDS011;39850;43.324;21.916;2023-02-01T05:30:38;27.0;;;22.0;;
53939;SDS011;39850;43.324;21.916;2023-02-01T05:35:15;27.0;;;22.0;;
53939;SDS011;39850;43.324;21.916;2023-02-01T06:26:06;38.0;;;32.0;;
53939;SDS011;39850;43.324;21.916;2023-02-01T06:30:43;38.0;;;32.0;;
53939;SDS011;39850;43.324;21.916;2023-02-01T06:35:21;38.0;;;32.0;;
53939;SDS011;39850;43.324;21.916;2023-02-01T06:39:57;38.0;;;32.0;;
53939;SDS011;39850;43.324;21.916;2023-02-01T06:44:34;38.0;;;32.0;;
53939;SDS011;39850;43.324;21.916;2023-02-01T06:49:10;38.0;;;32.0;;
53939;SDS011;39850;43.324;21.916;2023-02-01T06:53:47;38.0;;;32.0;;
53939;SDS011;39850;43.324;21.916;2023-02-01T06:58:28;38.0;;;31.0;;
53939;SDS011;39850;43.324;21.916;2023-02-01T07:03:06;38.0;;;31.0;;
53939;SDS011;39850;43.324;21.916;2023-02-01T07:58:36;111.0;;;86.0;;
53939;SDS011;39850;43.324;21.916;2023-02-01T08:03:12;111.0;;;86.0;;
53939;SDS011;39850;43.324;21.916;2023-02-01T08:07:49;111.0;;;86.0;;
53939;SDS011;39850;43.324;21.916;2023-02-01T08:12:26;111.0;;;86.0;;
53939;SDS011;39850;43.324;21.916;2023-02-01T08:17:02;111.0;;;86.0;;
53939;SDS011;39850;43.324;21.916;2023-02-01T08:21:39;111.0;;;86.0;;
53939;SDS011;39850;43.324;21.916;2023-02-01T15:40:22;22.0;;;19.0;;
53939;SDS011;39850;43.324;21.916;2023-02-01T15:45:01;22.0;;;19.0;;
53939;SDS011;39850;43.324;21.916;2023-02-01T15:49:52;23.0;;;20.0;;
53939;SDS011;39850;43.324;21.916;2023-02-01T15:54:52;23.0;;;20.0;;
53939;SDS011;39850;43.324;21.916;2023-02-01T15:59:45;22.0;;;19.0;;
53939;SDS011;39850;43.324;21.916;2023-02-01T16:04:27;22.0;;;19.0;;
53939;SDS011;39850;43.324;21.916;2023-02-01T16:09:17;22.0;;;20.0;;
53939;SDS011;39850;43.324;21.916;2023-02-01T16:13:55;22.0;;;20.0;;
53939;SDS011;39850;43.324;21.916;2023-02-01T16:18:31;20.0;;;18.0;;
53939;SDS011;39850;43.324;21.916;2023-02-01T16:23:10;20.0;;;18.0;;
53939;SDS011;39850;43.324;21.916;2023-02-01T19:52:11;374.0;;;261.0;;
53939;SDS011;39850;43.324;21.916;2023-02-01T19:56:48;374.0;;;261.0;;
53939;SDS011;39850;43.324;21.916;2023-02-01T20:01:25;374.0;;;261.0;;
53939;SDS011;39850;43.324;21.916;2023-02-01T20:06:03;374.0;;;261.0;;
53939;SDS011;39850;43.324;21.916;2023-02-01T20:10:42;374.0;;;261.0;;
53939;SDS011;39850;43.324;21.916;2023-02-01T20:15:19;374.0;;;261.0;;
53939;SDS011;39850;43.324;21.916;2023-02-01T23:25:00;418.0;;;302.0;;
53939;SDS011;39850;43.324;21.916;2023-02-01T23:29:36;418.0;;;302.0;;
53939;SDS011;39850;43.324;21.916;2023-02-01T23:34:12;406.0;;;290.0;;
53939;SDS011;39850;43.324;21.916;2023-02-01T23:38:50;406.0;;;290.0;;
53939;SDS011;39850;43.324;21.916;2023-02-01T23:43:29;406.0;;;290.0;;
53939;SDS011;39850;43.324;21.916;2023-02-01T23:48:06;393.0;;;278.0;;
53939;SDS011;39850;43.324;21.916;2023-02-01T23:52:43;393.0;;;278.0;;
53939;SDS011;39850;43.324;21.916;2023-02-01T23:57:20;358.0;;;251.0;;
